Time;durP1;ratioP1;P1;durP2;ratioP2;P2;SDS_P1;SDS_P2;PMS_P1;PMS_P2;Temp;Humidity;BMP_temperature;BMP_pressure;BME280_temperature;BME280_humidity;BME280_pressure;Samples;Min_cycle;Max_cycle;Signal;HPM_P1;HPM_P2
2024/01/20 00:00:47;;;;;;;4.40;3.17;;;;;;;;;;6313724;28;20052;-87
2024/01/20 00:03:48;;;;;;;4.93;2.87;;;;;;;;;;6308171;28;20035;-88
2024/01/20 00:06:48;;;;;;;5.57;3.33;;;;;;;;;;6340330;28;20052;-88
2024/01/20 00:09:48;;;;;;;4.43;3.10;;;;;;;;;;6325811;28;20111;-88
2024/01/20 00:12:51;;;;;;;4.40;3.07;;;;;;;;;;6318685;28;20071;-87
2024/01/20 00:15:51;;;;;;;4.55;3.08;;;;;;;;;;6342078;28;20126;-88
2024/01/20 00:18:52;;;;;;;4.63;3.20;;;;;;;;;;6315707;28;20031;-88
2024/01/20 00:21:52;;;;;;;4.50;2.67;;;;;;;;;;6316294;28;20027;-88
2024/01/20 00:24:52;;;;;;;4.10;3.00;;;;;;;;;;6322485;28;20053;-88
2024/01/20 00:27:53;;;;;;;5.23;2.87;;;;;;;;;;6321063;28;20031;-88
2024/01/20 00:30:53;;;;;;;4.43;2.97;;;;;;;;;;6321465;28;20031;-88
2024/01/20 00:33:53;;;;;;;4.37;3.20;;;;;;;;;;6330818;28;20024;-87
2024/01/20 00:36:54;;;;;;;4.93;3.13;;;;;;;;;;6333108;28;20030;-88
2024/01/20 00:39:56;;;;;;;4.37;3.27;;;;;;;;;;6323737;28;20436;-88
2024/01/20 00:42:57;;;;;;;5.50;3.15;;;;;;;;;;6311453;28;20059;-88
2024/01/20 00:45:57;;;;;;;4.57;3.30;;;;;;;;;;6309602;28;20043;-88
2024/01/20 00:48:57;;;;;;;3.60;2.87;;;;;;;;;;6312413;28;20028;-88
2024/01/20 00:51:58;;;;;;;4.60;3.30;;;;;;;;;;6319891;28;20114;-88
2024/01/20 00:54:58;;;;;;;3.93;2.97;;;;;;;;;;6324765;28;20034;-88
2024/01/20 00:57:58;;;;;;;5.73;3.50;;;;;;;;;;6335994;28;20024;-88
2024/01/20 01:00:59;;;;;;;4.80;2.97;;;;;;;;;;6342647;28;20081;-87
2024/01/20 01:04:00;;;;;;;5.60;3.50;;;;;;;;;;6350963;28;20565;-88
2024/01/20 01:07:00;;;;;;;4.27;3.17;;;;;;;;;;6347431;28;20055;-88
2024/01/20 01:10:04;;;;;;;6.07;3.33;;;;;;;;;;6331033;28;20483;-88
2024/01/20 01:13:04;;;;;;;4.00;2.60;;;;;;;;;;6348896;28;20052;-88
2024/01/20 01:16:07;;;;;;;5.13;3.50;;;;;;;;;;6323203;28;20043;-88
2024/01/20 01:19:07;;;;;;;4.45;3.10;;;;;;;;;;6350776;28;20033;-88
2024/01/20 01:22:11;;;;;;;4.87;3.47;;;;;;;;;;6332405;28;20423;-88
2024/01/20 01:25:11;;;;;;;4.63;3.50;;;;;;;;;;6331170;28;20023;-88
2024/01/20 01:28:14;;;;;;;5.03;3.37;;;;;;;;;;6334404;28;20035;-88
2024/01/20 01:31:14;;;;;;;5.70;3.30;;;;;;;;;;6327584;28;20028;-88
2024/01/20 01:34:14;;;;;;;4.33;3.03;;;;;;;;;;6323493;28;20028;-88
2024/01/20 01:37:15;;;;;;;4.33;2.97;;;;;;;;;;6317757;28;20751;-88
2024/01/20 01:40:15;;;;;;;5.27;3.17;;;;;;;;;;6322632;28;20026;-88
2024/01/20 01:43:15;;;;;;;5.70;3.13;;;;;;;;;;6319085;28;20023;-89
2024/01/20 01:46:16;;;;;;;5.47;3.20;;;;;;;;;;6333520;28;20023;-88
2024/01/20 01:49:16;;;;;;;5.97;3.23;;;;;;;;;;6351801;28;20019;-89
2024/01/20 01:52:17;;;;;;;5.53;3.30;;;;;;;;;;6339391;28;20027;-89
2024/01/20 01:55:18;;;;;;;5.15;3.55;;;;;;;;;;6336372;28;20015;-88
2024/01/20 01:58:18;;;;;;;4.13;3.10;;;;;;;;;;6340804;28;20513;-88
2024/01/20 02:01:19;;;;;;;4.23;3.03;;;;;;;;;;6350450;28;20023;-87
2024/01/20 02:04:19;;;;;;;4.57;3.23;;;;;;;;;;6331744;28;20401;-88
2024/01/20 02:07:19;;;;;;;4.80;3.20;;;;;;;;;;6333972;28;20051;-89
2024/01/20 02:10:23;;;;;;;4.83;3.10;;;;;;;;;;6336464;28;20535;-88
2024/01/20 02:13:26;;;;;;;5.25;3.63;;;;;;;;;;6343445;28;20038;-84
2024/01/20 02:16:26;;;;;;;4.97;3.50;;;;;;;;;;6348943;28;20024;-88
2024/01/20 02:19:27;;;;;;;5.80;3.78;;;;;;;;;;6337342;28;20030;-88
2024/01/20 02:22:27;;;;;;;5.17;3.47;;;;;;;;;;6353629;28;20479;-87
2024/01/20 02:25:28;;;;;;;4.77;3.43;;;;;;;;;;6334568;28;20112;-88
2024/01/20 02:28:28;;;;;;;4.87;3.23;;;;;;;;;;6320213;28;20031;-87
2024/01/20 02:31:28;;;;;;;5.43;3.27;;;;;;;;;;6323437;28;20031;-88
2024/01/20 02:34:28;;;;;;;4.77;3.40;;;;;;;;;;6345586;28;20015;-88
2024/01/20 02:37:29;;;;;;;4.13;3.20;;;;;;;;;;6324728;28;20016;-87
2024/01/20 02:40:29;;;;;;;4.43;3.27;;;;;;;;;;6352055;28;20016;-88
2024/01/20 02:43:29;;;;;;;4.10;3.23;;;;;;;;;;6346103;28;20420;-88
2024/01/20 02:46:30;;;;;;;5.97;3.27;;;;;;;;;;6343698;28;20068;-85
2024/01/20 02:49:30;;;;;;;4.07;3.07;;;;;;;;;;6336693;28;20487;-85
2024/01/20 02:52:31;;;;;;;4.27;3.00;;;;;;;;;;6311349;28;20023;-85
2024/01/20 02:55:32;;;;;;;4.67;2.90;;;;;;;;;;6328448;28;20081;-85
2024/01/20 02:58:32;;;;;;;3.75;2.85;;;;;;;;;;6328704;28;20027;-85
2024/01/20 03:01:33;;;;;;;4.50;2.77;;;;;;;;;;6347572;28;20092;-84
2024/01/20 03:04:33;;;;;;;4.80;3.07;;;;;;;;;;6314017;28;20049;-85
2024/01/20 03:07:34;;;;;;;4.70;3.07;;;;;;;;;;6297752;28;20186;-85
2024/01/20 03:10:34;;;;;;;5.13;3.30;;;;;;;;;;6314205;28;20024;-84
2024/01/20 03:13:34;;;;;;;5.07;2.73;;;;;;;;;;6314007;28;20081;-85
2024/01/20 03:16:34;;;;;;;4.80;3.20;;;;;;;;;;6320967;28;20012;-86
2024/01/20 03:19:35;;;;;;;3.50;2.87;;;;;;;;;;6306002;28;20498;-85
2024/01/20 03:22:35;;;;;;;4.67;2.97;;;;;;;;;;6322761;28;20346;-85
2024/01/20 03:25:35;;;;;;;4.80;3.00;;;;;;;;;;6304892;28;20027;-85
2024/01/20 03:28:36;;;;;;;4.57;3.13;;;;;;;;;;6315632;28;20016;-86
2024/01/20 03:31:36;;;;;;;5.53;3.15;;;;;;;;;;6304306;28;20021;-85
2024/01/20 03:34:37;;;;;;;5.90;3.07;;;;;;;;;;6297282;28;20032;-86
2024/01/20 03:37:37;;;;;;;4.90;3.40;;;;;;;;;;6297229;28;20220;-86
2024/01/20 03:40:37;;;;;;;5.17;3.33;;;;;;;;;;6304910;28;20051;-86
2024/01/20 03:43:38;;;;;;;4.97;3.30;;;;;;;;;;6318431;28;20043;-85
2024/01/20 03:46:38;;;;;;;3.93;2.73;;;;;;;;;;6317483;28;20106;-86
2024/01/20 03:49:38;;;;;;;6.07;3.40;;;;;;;;;;6300706;28;20499;-86
2024/01/20 03:52:38;;;;;;;4.33;3.10;;;;;;;;;;6319983;28;20028;-86
2024/01/20 03:55:39;;;;;;;4.40;3.20;;;;;;;;;;6322934;28;20107;-88
2024/01/20 03:58:39;;;;;;;4.67;3.00;;;;;;;;;;6304445;28;20019;-88
2024/01/20 04:01:39;;;;;;;5.03;3.20;;;;;;;;;;6308688;28;20016;-88
2024/01/20 04:04:39;;;;;;;5.07;3.20;;;;;;;;;;6317146;28;20035;-89
2024/01/20 04:07:40;;;;;;;4.43;2.80;;;;;;;;;;6336255;28;20197;-90
2024/01/20 04:10:40;;;;;;;6.03;2.83;;;;;;;;;;6334736;28;20480;-90
2024/01/20 04:13:40;;;;;;;4.03;2.83;;;;;;;;;;6324420;28;20059;-89
2024/01/20 04:16:41;;;;;;;4.37;2.97;;;;;;;;;;6321457;28;20032;-89
2024/01/20 04:19:41;;;;;;;3.90;2.57;;;;;;;;;;6348266;28;20011;-89
2024/01/20 04:22:41;;;;;;;3.60;2.57;;;;;;;;;;6327335;28;20031;-89
2024/01/20 04:25:41;;;;;;;3.83;2.83;;;;;;;;;;6334147;28;20068;-89
2024/01/20 04:28:42;;;;;;;4.17;3.00;;;;;;;;;;6333264;28;20031;-89
2024/01/20 04:31:42;;;;;;;3.93;2.57;;;;;;;;;;6347523;28;20476;-88
2024/01/20 04:34:42;;;;;;;3.67;2.60;;;;;;;;;;6345878;28;20035;-88
2024/01/20 04:37:43;;;;;;;5.67;2.73;;;;;;;;;;6326751;28;20022;-88
2024/01/20 04:40:44;;;;;;;4.10;2.65;;;;;;;;;;6330447;28;20465;-88
2024/01/20 04:43:44;;;;;;;5.23;2.47;;;;;;;;;;6321829;28;20038;-89
2024/01/20 04:46:44;;;;;;;4.40;2.60;;;;;;;;;;6338873;28;20189;-89
2024/01/20 04:49:44;;;;;;;3.33;2.43;;;;;;;;;;6341674;28;20094;-89
2024/01/20 04:52:45;;;;;;;3.50;2.40;;;;;;;;;;6309937;28;20028;-89
2024/01/20 04:55:45;;;;;;;4.03;2.60;;;;;;;;;;6320051;28;20024;-88
2024/01/20 04:58:46;;;;;;;3.40;2.53;;;;;;;;;;6337930;28;20045;-89
2024/01/20 05:01:48;;;;;;;3.13;2.43;;;;;;;;;;6315117;28;20467;-89
2024/01/20 05:04:48;;;;;;;3.55;2.55;;;;;;;;;;6337738;28;20285;-86
2024/01/20 05:07:48;;;;;;;3.60;2.33;;;;;;;;;;6304066;28;20407;-87
2024/01/20 05:10:49;;;;;;;3.37;2.43;;;;;;;;;;6300400;28;20032;-86
2024/01/20 05:13:49;;;;;;;3.87;2.57;;;;;;;;;;6306264;28;20032;-87
2024/01/20 05:16:49;;;;;;;3.17;2.10;;;;;;;;;;6312369;28;20032;-87
2024/01/20 05:19:49;;;;;;;3.50;2.03;;;;;;;;;;6316966;28;20019;-87
2024/01/20 05:22:50;;;;;;;3.63;2.50;;;;;;;;;;6320014;28;20388;-88
2024/01/20 05:25:50;;;;;;;3.63;2.50;;;;;;;;;;6306193;28;20401;-86
2024/01/20 05:28:50;;;;;;;4.33;2.70;;;;;;;;;;6319042;28;20032;-88
2024/01/20 05:31:50;;;;;;;3.73;2.17;;;;;;;;;;6313112;28;20028;-88
2024/01/20 05:34:51;;;;;;;3.00;2.50;;;;;;;;;;6298880;28;20074;-89
2024/01/20 05:37:51;;;;;;;3.43;2.20;;;;;;;;;;6303839;28;20049;-88
2024/01/20 05:40:51;;;;;;;4.10;2.30;;;;;;;;;;6321614;28;20032;-88
2024/01/20 05:43:52;;;;;;;2.67;1.93;;;;;;;;;;6318568;28;20377;-87
2024/01/20 05:46:52;;;;;;;2.43;1.90;;;;;;;;;;6304596;28;20028;-89
2024/01/20 05:49:52;;;;;;;3.70;2.27;;;;;;;;;;6309352;28;20460;-88
2024/01/20 05:52:52;;;;;;;2.77;2.20;;;;;;;;;;6315801;28;20028;-88
2024/01/20 05:55:53;;;;;;;2.80;2.27;;;;;;;;;;6312770;28;20386;-87
2024/01/20 05:58:53;;;;;;;3.80;2.50;;;;;;;;;;6310677;28;20044;-87
2024/01/20 06:01:53;;;;;;;3.57;2.00;;;;;;;;;;6321726;28;20133;-88
2024/01/20 06:04:53;;;;;;;3.43;2.03;;;;;;;;;;6317391;28;20020;-87
2024/01/20 06:07:54;;;;;;;2.87;2.30;;;;;;;;;;6323043;28;20040;-86
2024/01/20 06:10:54;;;;;;;2.87;2.47;;;;;;;;;;6314202;28;20024;-90
2024/01/20 06:13:55;;;;;;;3.13;2.10;;;;;;;;;;6309836;28;20065;-90
2024/01/20 06:16:55;;;;;;;4.73;2.97;;;;;;;;;;6308493;28;20490;-89
2024/01/20 06:19:55;;;;;;;2.83;2.43;;;;;;;;;;6317687;28;20023;-89
2024/01/20 06:22:55;;;;;;;3.60;2.57;;;;;;;;;;6311696;28;20025;-91
2024/01/20 06:25:56;;;;;;;3.10;2.40;;;;;;;;;;6313137;28;20031;-92
2024/01/20 06:28:56;;;;;;;4.37;2.50;;;;;;;;;;6325605;28;20063;-90
2024/01/20 06:31:57;;;;;;;4.63;2.33;;;;;;;;;;6327772;28;20521;-91
2024/01/20 06:34:57;;;;;;;3.60;2.83;;;;;;;;;;6310928;28;20400;-90
2024/01/20 06:37:58;;;;;;;3.63;2.67;;;;;;;;;;6316146;28;20139;-91
2024/01/20 06:40:58;;;;;;;4.50;2.30;;;;;;;;;;6314411;28;20021;-91
2024/01/20 06:43:58;;;;;;;4.60;2.47;;;;;;;;;;6305677;28;20541;-90
2024/01/20 06:46:58;;;;;;;3.53;2.60;;;;;;;;;;6327127;28;20030;-91
2024/01/20 06:49:59;;;;;;;3.97;2.50;;;;;;;;;;6305991;28;20093;-92
2024/01/20 06:52:59;;;;;;;4.10;2.57;;;;;;;;;;6310974;28;20543;-85
2024/01/20 06:55:59;;;;;;;3.27;2.40;;;;;;;;;;6307909;28;20017;-82
2024/01/20 06:59:00;;;;;;;3.97;2.30;;;;;;;;;;6320781;28;20155;-87
2024/01/20 07:02:00;;;;;;;3.30;2.27;;;;;;;;;;6318875;28;20491;-90
2024/01/20 07:05:04;;;;;;;3.40;2.53;;;;;;;;;;6312483;28;20017;-89
2024/01/20 07:08:05;;;;;;;3.75;2.40;;;;;;;;;;6333488;28;20510;-90
2024/01/20 07:11:09;;;;;;;3.47;2.40;;;;;;;;;;6328717;28;20043;-89
2024/01/20 07:14:49;;;;;;;;;;;;;;;;;;;;;
2024/01/20 07:17:49;;;;;;;3.20;2.38;;;;;;;;;;6325544;28;20538;-88
2024/01/20 07:20:50;;;;;;;3.67;2.23;;;;;;;;;;6343305;28;20028;-88
2024/01/20 07:23:53;;;;;;;3.10;2.23;;;;;;;;;;6343593;28;20375;-89
2024/01/20 07:26:54;;;;;;;3.08;2.03;;;;;;;;;;6348133;28;20019;-89
2024/01/20 07:29:54;;;;;;;4.15;2.05;;;;;;;;;;6322005;28;20032;-88
2024/01/20 07:32:58;;;;;;;4.07;2.17;;;;;;;;;;6339677;28;20039;-88
2024/01/20 07:35:59;;;;;;;2.97;2.08;;;;;;;;;;6344896;28;20023;-87
2024/01/20 07:38:59;;;;;;;3.07;2.43;;;;;;;;;;5982366;28;10000471;-79
2024/01/20 07:41:59;;;;;;;2.67;2.00;;;;;;;;;;6341662;28;20379;-79
2024/01/20 07:45:00;;;;;;;2.47;1.77;;;;;;;;;;6332210;28;20024;-80
2024/01/20 07:48:00;;;;;;;3.33;2.27;;;;;;;;;;6337804;28;20016;-80
2024/01/20 07:51:00;;;;;;;2.00;1.77;;;;;;;;;;6330009;28;20115;-80
2024/01/20 07:54:01;;;;;;;3.70;2.03;;;;;;;;;;6344363;28;20085;-80
2024/01/20 07:57:01;;;;;;;2.93;2.10;;;;;;;;;;6348565;28;20030;-86
2024/01/20 08:00:02;;;;;;;2.07;1.67;;;;;;;;;;6347983;28;20476;-89
2024/01/20 08:03:02;;;;;;;2.97;1.73;;;;;;;;;;6330086;28;20016;-87
2024/01/20 08:06:03;;;;;;;2.43;1.50;;;;;;;;;;6310339;28;20075;-84
2024/01/20 08:09:03;;;;;;;3.00;1.80;;;;;;;;;;6337742;28;20012;-86
2024/01/20 08:12:04;;;;;;;2.45;1.63;;;;;;;;;;6331779;28;20077;-85
2024/01/20 08:15:04;;;;;;;1.97;1.70;;;;;;;;;;6346439;28;20030;-84
2024/01/20 08:18:05;;;;;;;1.90;1.70;;;;;;;;;;6334661;28;20020;-85
2024/01/20 08:21:06;;;;;;;2.77;1.50;;;;;;;;;;6321962;28;20016;-84
2024/01/20 08:24:06;;;;;;;3.60;1.90;;;;;;;;;;6333001;28;20452;-85
2024/01/20 08:27:07;;;;;;;3.33;1.93;;;;;;;;;;6344770;28;20035;-82
2024/01/20 08:30:07;;;;;;;1.60;1.37;;;;;;;;;;6335840;28;20030;-84
2024/01/20 08:33:07;;;;;;;2.73;1.70;;;;;;;;;;6337245;28;20024;-84
2024/01/20 08:36:08;;;;;;;1.90;1.63;;;;;;;;;;6331694;28;20512;-87
2024/01/20 08:39:08;;;;;;;1.67;1.50;;;;;;;;;;6329215;28;20440;-85
2024/01/20 08:42:08;;;;;;;2.70;1.57;;;;;;;;;;6342713;27;20024;-83
2024/01/20 08:45:10;;;;;;;2.57;1.43;;;;;;;;;;6319470;28;20524;-88
2024/01/20 08:48:11;;;;;;;;;;;;;;;;;;6307612;28;20046;-86
2024/01/20 08:51:11;;;;;;;2.28;1.48;;;;;;;;;;6318491;28;20306;-87
2024/01/20 08:54:12;;;;;;;3.83;1.80;;;;;;;;;;6329010;28;20376;-87
2024/01/20 08:57:12;;;;;;;2.13;1.60;;;;;;;;;;6336458;28;20479;-89
2024/01/20 09:00:13;;;;;;;3.63;1.73;;;;;;;;;;6343073;28;20787;-76
2024/01/20 09:03:15;;;;;;;3.83;2.00;;;;;;;;;;6341608;28;20035;-75
2024/01/20 09:06:16;;;;;;;2.72;1.80;;;;;;;;;;6338325;28;20067;-76
2024/01/20 09:09:17;;;;;;;2.27;1.37;;;;;;;;;;6325601;28;20024;-86
2024/01/20 09:12:18;;;;;;;2.08;1.52;;;;;;;;;;6321178;28;20457;-86
2024/01/20 09:15:18;;;;;;;3.33;1.80;;;;;;;;;;6329007;28;20027;-85
2024/01/20 09:18:18;;;;;;;3.67;1.77;;;;;;;;;;6324987;28;20032;-92
2024/01/20 09:21:19;;;;;;;2.93;1.80;;;;;;;;;;6325080;28;20055;-86
2024/01/20 09:24:19;;;;;;;1.97;1.70;;;;;;;;;;6344304;28;20413;-88
2024/01/20 09:27:19;;;;;;;2.20;1.70;;;;;;;;;;6339844;28;20020;-85
2024/01/20 09:30:19;;;;;;;3.37;1.93;;;;;;;;;;6347423;28;20055;-87
2024/01/20 09:33:20;;;;;;;2.57;2.00;;;;;;;;;;6355295;27;20479;-87
2024/01/20 09:36:20;;;;;;;2.23;1.63;;;;;;;;;;6322964;28;20019;-88
2024/01/20 09:39:21;;;;;;;2.67;1.73;;;;;;;;;;6324178;28;20020;-89
2024/01/20 09:42:21;;;;;;;3.08;1.63;;;;;;;;;;6343928;28;20396;-88
2024/01/20 09:45:22;;;;;;;3.73;1.47;;;;;;;;;;6339800;28;20032;-85
2024/01/20 09:48:23;;;;;;;2.63;1.97;;;;;;;;;;6328096;28;20027;-92
2024/01/20 09:51:31;;;;;;;2.92;1.77;;;;;;;;;;6335715;28;20384;-85
2024/01/20 09:54:31;;;;;;;1.92;1.50;;;;;;;;;;6350343;27;20131;-84
2024/01/20 09:57:32;;;;;;;1.93;1.50;;;;;;;;;;6351224;27;20044;-84
2024/01/20 10:00:33;;;;;;;2.07;1.50;;;;;;;;;;6334638;28;20020;-82
2024/01/20 10:03:34;;;;;;;2.10;1.63;;;;;;;;;;6320293;28;20102;-81
2024/01/20 10:06:34;;;;;;;2.78;1.67;;;;;;;;;;6339828;28;20052;-80
2024/01/20 10:09:35;;;;;;;2.17;1.63;;;;;;;;;;6333371;28;20031;-80
2024/01/20 10:12:36;;;;;;;2.10;1.57;;;;;;;;;;6333987;28;20136;-80
2024/01/20 10:15:36;;;;;;;2.63;1.80;;;;;;;;;;6333169;28;20023;-80
2024/01/20 10:18:36;;;;;;;1.60;1.40;;;;;;;;;;6340987;28;20426;-79
2024/01/20 10:21:40;;;;;;;2.17;1.70;;;;;;;;;;6335218;28;20019;-81
2024/01/20 10:24:47;;;;;;;2.10;1.38;;;;;;;;;;6336921;28;20543;-79
2024/01/20 10:27:49;;;;;;;2.90;1.45;;;;;;;;;;6317619;28;20038;-80
2024/01/20 10:30:49;;;;;;;2.28;1.67;;;;;;;;;;6343124;28;20044;-79
2024/01/20 10:33:50;;;;;;;1.70;1.43;;;;;;;;;;6337209;28;20047;-80
2024/01/20 10:36:53;;;;;;;2.38;1.50;;;;;;;;;;6325155;28;20027;-81
2024/01/20 10:39:55;;;;;;;2.17;1.77;;;;;;;;;;6337940;28;20123;-80
2024/01/20 10:42:59;;;;;;;4.70;3.42;;;;;;;;;;6338429;28;20027;-80
2024/01/20 10:46:00;;;;;;;3.17;2.47;;;;;;;;;;6343206;28;20084;-80
2024/01/20 10:49:02;;;;;;;2.45;1.92;;;;;;;;;;6336708;28;20047;-81
2024/01/20 10:52:03;;;;;;;2.00;1.45;;;;;;;;;;6329214;28;20040;-82
2024/01/20 10:55:04;;;;;;;2.27;1.60;;;;;;;;;;6344330;28;20020;-83
2024/01/20 10:58:06;;;;;;;2.55;1.52;;;;;;;;;;6347536;28;20020;-83
2024/01/20 11:01:07;;;;;;;2.38;1.30;;;;;;;;;;6337840;28;20508;-83
2024/01/20 11:04:10;;;;;;;2.10;1.20;;;;;;;;;;6337420;28;20140;-83
2024/01/20 11:07:11;;;;;;;1.50;1.27;;;;;;;;;;6335622;28;20082;-83
2024/01/20 11:10:12;;;;;;;;;;;;;;;;;;6343396;28;20027;-83
2024/01/20 11:13:13;;;;;;;1.60;1.20;;;;;;;;;;6324966;28;19916;-83
2024/01/20 11:16:20;;;;;;;1.42;1.05;;;;;;;;;;6342297;28;20024;-83
2024/01/20 11:19:20;;;;;;;1.92;1.50;;;;;;;;;;6343781;28;20031;-86
2024/01/20 11:22:34;;;;;;;2.67;1.93;;;;;;;;;;6345411;28;20038;-84
2024/01/20 11:25:35;;;;;;;2.55;1.70;;;;;;;;;;6334927;28;20059;-84
2024/01/20 11:28:35;;;;;;;1.95;1.60;;;;;;;;;;5974633;28;9999672;-84
2024/01/20 11:31:36;;;;;;;1.90;1.47;;;;;;;;;;6337863;28;20031;-83
2024/01/20 11:34:36;;;;;;;1.47;1.00;;;;;;;;;;6340139;28;20041;-88
2024/01/20 11:37:36;;;;;;;3.10;1.20;;;;;;;;;;6340742;28;20540;-82
2024/01/20 11:40:36;;;;;;;3.47;1.50;;;;;;;;;;6320815;28;20421;-83
2024/01/20 11:43:43;;;;;;;2.60;1.80;;;;;;;;;;6344108;28;20030;-85
2024/01/20 11:46:45;;;;;;;1.60;1.30;;;;;;;;;;6337518;28;20073;-83
2024/01/20 11:49:45;;;;;;;1.70;1.30;;;;;;;;;;6324592;28;20378;-83
2024/01/20 11:52:46;;;;;;;1.53;1.23;;;;;;;;;;6337417;28;20464;-82
2024/01/20 11:55:55;;;;;;;1.43;1.00;;;;;;;;;;6338696;28;20099;-84
2024/01/20 11:58:56;;;;;;;2.20;1.20;;;;;;;;;;6336372;28;20027;-85
2024/01/20 12:01:56;;;;;;;1.27;1.17;;;;;;;;;;6335879;28;20080;-86
2024/01/20 12:04:56;;;;;;;1.63;1.33;;;;;;;;;;6340207;28;20111;-77
2024/01/20 12:07:57;;;;;;;2.07;1.27;;;;;;;;;;6323914;28;20052;-82
2024/01/20 12:10:57;;;;;;;1.47;1.10;;;;;;;;;;6339545;28;20468;-79
2024/01/20 12:13:57;;;;;;;1.50;1.10;;;;;;;;;;6341358;28;20353;-79
2024/01/20 12:16:58;;;;;;;1.53;0.90;;;;;;;;;;6345730;28;20015;-86
2024/01/20 12:19:58;;;;;;;1.13;1.00;;;;;;;;;;6346617;28;20452;-86
2024/01/20 12:23:02;;;;;;;1.27;1.13;;;;;;;;;;6319554;28;20036;-84
2024/01/20 12:26:10;;;;;;;1.20;1.00;;;;;;;;;;6346812;28;20038;-83
2024/01/20 12:29:10;;;;;;;1.25;1.08;;;;;;;;;;6332665;28;20016;-84
2024/01/20 12:32:11;;;;;;;1.43;1.10;;;;;;;;;;6343188;28;20024;-83
2024/01/20 12:35:11;;;;;;;1.90;0.93;;;;;;;;;;6343455;28;20020;-83
2024/01/20 12:38:11;;;;;;;1.33;1.10;;;;;;;;;;6343022;28;20415;-82
2024/01/20 12:41:13;;;;;;;1.33;0.80;;;;;;;;;;6334367;28;20073;-84
2024/01/20 12:44:13;;;;;;;0.98;0.82;;;;;;;;;;6337808;28;20497;-82
2024/01/20 12:47:13;;;;;;;2.07;1.10;;;;;;;;;;6340574;28;20110;-85
2024/01/20 12:50:14;;;;;;;2.87;1.70;;;;;;;;;;6340647;28;20032;-82
2024/01/20 12:53:14;;;;;;;2.00;1.53;;;;;;;;;;6326292;28;20345;-86
2024/01/20 12:56:16;;;;;;;3.03;1.43;;;;;;;;;;6345261;28;20020;-83
2024/01/20 12:59:16;;;;;;;2.08;1.00;;;;;;;;;;6318959;28;23428;-85
2024/01/20 13:02:17;;;;;;;1.23;0.97;;;;;;;;;;6315732;28;20058;-85
2024/01/20 13:05:17;;;;;;;2.37;1.20;;;;;;;;;;6343584;28;20095;-84
2024/01/20 13:08:17;;;;;;;1.67;0.90;;;;;;;;;;6344534;28;20373;-80
2024/01/20 13:11:18;;;;;;;2.17;1.50;;;;;;;;;;6346395;28;20028;-80
2024/01/20 13:14:18;;;;;;;1.80;1.37;;;;;;;;;;6347955;28;20015;-80
2024/01/20 13:17:18;;;;;;;1.77;1.17;;;;;;;;;;6322410;28;20022;-78
2024/01/20 13:20:19;;;;;;;1.73;1.10;;;;;;;;;;6317862;28;20059;-78
2024/01/20 13:23:19;;;;;;;1.27;1.00;;;;;;;;;;6329608;28;20028;-78
2024/01/20 13:26:20;;;;;;;1.90;0.80;;;;;;;;;;6342577;28;20024;-76
2024/01/20 13:29:20;;;;;;;2.50;1.40;;;;;;;;;;6344319;28;20489;-76
2024/01/20 13:32:20;;;;;;;2.40;1.30;;;;;;;;;;6332688;28;20464;-78
2024/01/20 13:35:21;;;;;;;2.70;1.60;;;;;;;;;;6333203;28;20346;-84
2024/01/20 13:38:21;;;;;;;3.97;2.37;;;;;;;;;;6345902;28;20026;-79
2024/01/20 13:41:21;;;;;;;3.33;2.20;;;;;;;;;;6341744;28;20131;-80
2024/01/20 13:44:22;;;;;;;1.93;1.20;;;;;;;;;;6333566;28;20473;-80
2024/01/20 13:47:22;;;;;;;2.50;1.07;;;;;;;;;;6318932;28;20059;-80
2024/01/20 13:50:24;;;;;;;2.07;1.20;;;;;;;;;;6339761;28;20083;-80
2024/01/20 13:53:24;;;;;;;1.60;0.95;;;;;;;;;;6337061;28;20038;-80
2024/01/20 13:56:25;;;;;;;1.13;0.80;;;;;;;;;;6329634;28;20055;-80
2024/01/20 13:59:26;;;;;;;1.05;0.80;;;;;;;;;;6332382;28;20028;-80
2024/01/20 14:02:26;;;;;;;1.30;0.75;;;;;;;;;;6342996;28;20031;-80
2024/01/20 14:05:27;;;;;;;1.43;0.60;;;;;;;;;;6319807;28;20383;-80
2024/01/20 14:08:27;;;;;;;0.83;0.70;;;;;;;;;;6337058;28;20441;-79
2024/01/20 14:11:27;;;;;;;0.80;0.60;;;;;;;;;;6320479;28;20032;-80
2024/01/20 14:14:28;;;;;;;1.03;0.70;;;;;;;;;;6341679;28;20027;-80
2024/01/20 14:17:28;;;;;;;0.70;0.70;;;;;;;;;;6341736;28;20111;-79
2024/01/20 14:20:29;;;;;;;1.37;0.70;;;;;;;;;;6342487;28;20055;-79
2024/01/20 14:23:29;;;;;;;0.80;0.63;;;;;;;;;;6334069;28;20107;-80
2024/01/20 14:26:29;;;;;;;1.27;0.70;;;;;;;;;;6328500;28;20055;-84
2024/01/20 14:29:29;;;;;;;1.07;0.70;;;;;;;;;;6334311;28;20015;-83
2024/01/20 14:32:30;;;;;;;0.97;0.80;;;;;;;;;;6340593;28;20019;-82
2024/01/20 14:35:30;;;;;;;1.42;0.90;;;;;;;;;;6326887;28;20020;-86
2024/01/20 14:38:31;;;;;;;7.43;3.87;;;;;;;;;;6308061;28;20024;-83
2024/01/20 14:41:31;;;;;;;5.83;3.47;;;;;;;;;;6341411;28;20020;-82
2024/01/20 14:44:31;;;;;;;3.03;2.33;;;;;;;;;;6313870;28;20414;-82
2024/01/20 14:47:31;;;;;;;1.90;1.40;;;;;;;;;;6334992;28;20376;-83
2024/01/20 14:50:32;;;;;;;2.13;1.20;;;;;;;;;;6325565;28;20172;-82
2024/01/20 14:53:41;;;;;;;2.24;1.19;;;;;;;;;;6293465;28;10001067;-82
2024/01/20 14:56:41;;;;;;;1.47;1.10;;;;;;;;;;6337539;28;20228;-83
2024/01/20 14:59:41;;;;;;;1.33;0.87;;;;;;;;;;6317972;28;21081;-83
2024/01/20 15:02:42;;;;;;;1.37;1.03;;;;;;;;;;6343314;28;20020;-82
2024/01/20 15:05:42;;;;;;;1.20;0.83;;;;;;;;;;6340056;28;20036;-82
2024/01/20 15:08:44;;;;;;;1.57;0.70;;;;;;;;;;6337560;28;20030;-82
2024/01/20 15:11:44;;;;;;;1.85;0.80;;;;;;;;;;6340173;28;20027;-82
2024/01/20 15:14:44;;;;;;;0.70;0.60;;;;;;;;;;6347621;28;20051;-82
2024/01/20 15:17:44;;;;;;;0.87;0.80;;;;;;;;;;6315837;28;20047;-83
2024/01/20 15:20:45;;;;;;;2.30;0.70;;;;;;;;;;6328153;28;20381;-84
2024/01/20 15:23:45;;;;;;;0.97;0.70;;;;;;;;;;6344971;28;20020;-85
2024/01/20 15:26:45;;;;;;;1.90;0.90;;;;;;;;;;6343972;28;20026;-85
2024/01/20 15:29:45;;;;;;;0.57;0.50;;;;;;;;;;6344949;28;20056;-84
2024/01/20 15:32:46;;;;;;;1.07;0.80;;;;;;;;;;6317297;28;20094;-80
2024/01/20 15:35:47;;;;;;;1.50;1.03;;;;;;;;;;6332137;28;20024;-82
2024/01/20 15:38:47;;;;;;;1.13;0.98;;;;;;;;;;6343324;28;20480;-87
2024/01/20 15:41:48;;;;;;;2.13;0.97;;;;;;;;;;6340039;28;20035;-83
2024/01/20 15:44:48;;;;;;;0.88;0.68;;;;;;;;;;6346944;28;20046;-83
2024/01/20 15:47:49;;;;;;;0.90;0.63;;;;;;;;;;6339496;28;20030;-83
2024/01/20 15:50:49;;;;;;;1.10;0.60;;;;;;;;;;6344205;28;20036;-83
2024/01/20 15:53:49;;;;;;;0.80;0.63;;;;;;;;;;6337121;28;20035;-85
2024/01/20 15:56:49;;;;;;;1.43;0.70;;;;;;;;;;6340593;28;20016;-83
2024/01/20 15:59:50;;;;;;;1.13;0.60;;;;;;;;;;6337490;28;20452;-83
2024/01/20 16:02:50;;;;;;;1.17;0.70;;;;;;;;;;6335506;28;20399;-82
2024/01/20 16:05:50;;;;;;;1.07;0.80;;;;;;;;;;6330435;28;20109;-86
2024/01/20 16:08:56;;;;;;;0.90;0.60;;;;;;;;;;6345835;28;20024;-81
2024/01/20 16:11:58;;;;;;;0.63;0.52;;;;;;;;;;6340938;28;20028;-83
2024/01/20 16:14:58;;;;;;;1.23;0.60;;;;;;;;;;6327540;28;20028;-81
2024/01/20 16:18:04;;;;;;;2.60;1.43;;;;;;;;;;6321640;28;20027;-82
2024/01/20 16:21:04;;;;;;;1.73;1.23;;;;;;;;;;6341550;28;20019;-85
2024/01/20 16:24:04;;;;;;;1.73;1.13;;;;;;;;;;6346340;28;20034;-83
2024/01/20 16:27:04;;;;;;;1.37;0.90;;;;;;;;;;6336522;28;20409;-83
2024/01/20 16:30:05;;;;;;;1.27;0.73;;;;;;;;;;6342358;28;20032;-81
2024/01/20 16:33:05;;;;;;;2.50;1.00;;;;;;;;;;6334081;28;20015;-82
2024/01/20 16:36:06;;;;;;;1.30;0.90;;;;;;;;;;6332535;28;20020;-87
2024/01/20 16:39:07;;;;;;;1.40;0.97;;;;;;;;;;6307289;28;20019;-81
2024/01/20 16:42:07;;;;;;;1.10;0.75;;;;;;;;;;6345416;28;20491;-81
2024/01/20 16:45:08;;;;;;;1.00;0.80;;;;;;;;;;6337299;28;20020;-82
2024/01/20 16:48:08;;;;;;;1.60;1.00;;;;;;;;;;6322380;28;20042;-77
2024/01/20 16:51:08;;;;;;;3.13;1.90;;;;;;;;;;6332074;28;20035;-78
2024/01/20 16:54:09;;;;;;;3.50;2.50;;;;;;;;;;6337136;28;20291;-77
2024/01/20 16:57:10;;;;;;;3.33;2.10;;;;;;;;;;6332957;28;20035;-87
2024/01/20 17:00:11;;;;;;;2.25;1.40;;;;;;;;;;6311712;28;20047;-77
2024/01/20 17:03:12;;;;;;;3.15;1.80;;;;;;;;;;6331375;28;20124;-77
2024/01/20 17:06:17;;;;;;;1.80;1.13;;;;;;;;;;6336116;28;20048;-83
2024/01/20 17:09:18;;;;;;;1.70;0.95;;;;;;;;;;6343005;28;20020;-81
2024/01/20 17:12:18;;;;;;;1.33;0.97;;;;;;;;;;6335453;28;20407;-81
2024/01/20 17:15:18;;;;;;;0.90;0.70;;;;;;;;;;6332279;28;20051;-80
2024/01/20 17:18:19;;;;;;;1.50;1.00;;;;;;;;;;6342653;28;20661;-84
2024/01/20 17:21:20;;;;;;;2.90;0.87;;;;;;;;;;6339352;28;20058;-85
2024/01/20 17:24:20;;;;;;;;;;;;;;;;;;6333822;28;20011;-81
2024/01/20 17:27:21;;;;;;;1.88;0.77;;;;;;;;;;6328485;28;19907;-82
2024/01/20 17:30:21;;;;;;;1.20;0.70;;;;;;;;;;6337476;28;20524;-80
2024/01/20 17:33:24;;;;;;;0.90;0.83;;;;;;;;;;6334712;28;20034;-82
2024/01/20 17:36:24;;;;;;;1.13;0.90;;;;;;;;;;6336771;28;20026;-82
2024/01/20 17:39:25;;;;;;;0.80;0.60;;;;;;;;;;6338025;28;20048;-80
2024/01/20 17:42:25;;;;;;;0.90;0.80;;;;;;;;;;6315854;28;20526;-79
2024/01/20 17:45:25;;;;;;;0.83;0.73;;;;;;;;;;6324519;28;20020;-84
2024/01/20 17:48:26;;;;;;;1.67;1.10;;;;;;;;;;6349600;28;20073;-84
2024/01/20 17:51:26;;;;;;;1.37;1.07;;;;;;;;;;6344051;28;20020;-80
2024/01/20 17:54:31;;;;;;;1.43;0.80;;;;;;;;;;6351460;28;20016;-84
2024/01/20 17:57:35;;;;;;;1.20;0.90;;;;;;;;;;6345622;28;20038;-84
2024/01/20 18:00:35;;;;;;;2.05;1.10;;;;;;;;;;6337618;28;20012;-88
2024/01/20 18:03:36;;;;;;;2.10;1.10;;;;;;;;;;6313506;28;20081;-86
2024/01/20 18:06:36;;;;;;;2.40;0.90;;;;;;;;;;6345336;28;20044;-84